Latest Weather Observations for Hughenden

IDQ60801

Issued at 8:02 pm EST Sunday 24 September 2017 (issued every 30 minutes, with the page automatically refreshed every 10 minutes)

About weather observations | Map of weather stations | Latest weather observations for QLD | Other Formats
Station Details ID: 030022 Name: HUGHENDEN AIRPORT Lat: -20.82 Lon: 144.23 Height: 316.4 m
Data from the previous 72 hours. | See also: Recent months at Hughenden
Date/Time
EST
Temp
°C
App
Temp
°C
Dew
Point
°C
Rel
Hum
%
Delta-T
°C
Wind Press
QNH
hPa
Press
MSL
hPa
Rain since
9am
mm
Dir  Spd
km/h
Gust
km/h
Spd
kts
Gust
kts
24/08:00pm 30.5 24.6 -5.9 9 16.0 NE 17 22 9 12 1011.7 1010.1 0.0
24/07:30pm 31.0 25.5 -5.5 9 16.2 ENE 15 20 8 11 1011.4 1009.8 0.0
24/07:00pm 31.6 26.4 -6.6 8 16.8 ENE 13 15 7 8 1011.0 1009.4 0.0
24/06:30pm 32.8 27.5 -7.5 7 17.6 ENE 13 20 7 11 1010.8 1009.2 0.0
24/06:00pm 34.2 28.2 -6.5 7 18.3 ENE 17 24 9 13 1010.5 1008.9 0.0
24/05:30pm 35.0 29.4 -5.9 7 18.6 NE 15 20 8 11 1010.2 1008.6 0.0
24/05:00pm 35.3 30.1 -5.7 7 18.8 NE 13 24 7 13 1010.1 1008.5 0.0
24/04:30pm 35.6 29.5 -7.5 6 19.2 NE 17 24 9 13 1010.1 1008.5 0.0
24/04:00pm 35.8 30.5 -7.3 6 19.3 NNE 13 20 7 11 1010.1 1008.5 0.0
24/03:42pm 36.6 30.4 -4.7 7 19.4 ESE 19 44 10 24 1009.9 1008.4 0.0
24/03:30pm 35.7 30.6 -5.4 7 19.0 ESE 13 20 7 11 1010.3 1008.7 0.0
24/03:00pm 35.8 31.3 -7.3 6 19.3 E 9 15 5 8 1010.6 1009.0 0.0
24/02:30pm 35.8 31.1 -5.3 7 19.0 NNE 11 26 6 14 1011.1 1009.5 0.0
24/02:00pm 36.0 30.5 -5.2 7 19.1 E 15 24 8 13 1011.4 1009.8 0.0
24/01:30pm 35.8 29.9 -5.3 7 19.0 NNE 17 28 9 15 1012.0 1010.4 0.0
24/01:00pm 35.0 30.8 -4.1 8 18.3 ENE 9 19 5 10 1012.5 1011.0 0.0
24/12:30pm 35.0 29.6 -4.1 8 18.3 ENE 15 28 8 15 1013.1 1011.6 0.0
24/12:00pm 34.4 28.2 -4.6 8 18.1 ENE 19 28 10 15 1013.7 1012.1 0.0
24/11:30am 33.9 27.1 -4.9 8 17.8 ENE 22 30 12 16 1014.2 1012.6 0.0
24/11:00am 33.4 27.2 -5.3 8 17.6 NE 19 26 10 14 1014.8 1013.2 0.0
24/10:30am 32.6 26.5 -4.3 9 16.9 NE 19 35 10 19 1015.1 1013.6 0.0
24/10:00am 31.7 26.6 -2.3 11 16.0 NNE 15 24 8 13 1015.3 1013.8 0.0
24/09:30am 29.9 24.3 -2.6 12 15.0 NNE 17 22 9 12 1015.7 1014.2 0.0
24/09:00am 28.4 23.8 -0.7 15 13.8 NNE 13 20 7 11 1016.0 1014.5 0.0
24/08:30am 26.2 22.1 2.2 21 11.8 NE 13 19 7 10 1016.0 1014.5 0.0
24/08:00am 25.1 21.3 3.7 25 10.7 NE 13 20 7 11 1015.7 1014.2 0.0
24/07:30am 24.0 20.4 4.9 29 9.7 ENE 13 17 7 9 1015.1 1013.6 0.0
24/07:00am 22.5 19.4 5.4 33 8.7 E 11 13 6 7 1014.9 1013.4 0.0
24/06:30am 20.5 17.5 6.1 39 7.3 ENE 11 15 6 8 1014.5 1012.9 0.0
24/06:00am 20.6 18.2 5.4 37 7.6 ENE 7 9 4 5 1014.4 1012.8 0.0
24/05:30am 20.7 18.3 4.3 34 8.1 ENE 6 9 3 5 1014.2 1012.6 0.0
24/05:00am 20.9 18.3 4.0 33 8.3 ENE 7 13 4 7 1013.8 1012.2 0.0
24/04:30am 21.2 17.7 3.4 31 8.6 NE 11 15 6 8 1013.6 1012.0 0.0
24/04:00am 21.5 18.2 2.7 29 9.0 NE 9 13 5 7 1013.3 1011.8 0.0
24/03:30am 22.2 17.7 2.3 27 9.5 ENE 15 17 8 9 1013.3 1011.8 0.0
24/03:00am 22.8 18.4 2.8 27 9.7 NE 15 19 8 10 1013.5 1011.9 0.0
24/02:30am 22.2 18.5 2.3 27 9.5 NE 11 13 6 7 1013.6 1012.0 0.0
24/02:00am 23.6 20.3 2.4 25 10.3 NE 9 13 5 7 1013.7 1012.1 0.0
24/01:30am 25.0 19.6 2.4 23 11.0 NE 20 28 11 15 1013.6 1012.0 0.0
24/01:00am 25.9 19.9 3.2 23 11.3 NE 24 30 13 16 1013.7 1012.1 0.0
24/12:30am 26.5 21.1 2.4 21 11.9 NNE 20 30 11 16 1014.1 1012.5 0.0
24/12:00am 27.0 22.6 2.8 21 12.1 N 15 22 8 12 1014.1 1012.5 0.0
 
Date/Time
EST
Temp
°C
App
Temp
°C
Dew
Point
°C
Rel
Hum
%
Delta-T
°C
Wind Press
QNH
hPa
Press
MSL
hPa
Rain since
9am
mm
Dir  Spd
km/h
Gust
km/h
Spd
kts
Gust
kts
23/11:30pm 27.7 22.3 2.7 20 12.5 NNE 20 28 11 15 1014.2 1012.6 0.0
23/11:00pm 28.2 22.7 1.7 18 13.1 NNE 20 26 11 14 1014.1 1012.5 0.0
23/10:30pm 28.3 22.3 0.9 17 13.3 ENE 22 30 12 16 1013.6 1012.0 0.0
23/10:00pm 28.3 22.6 -0.8 15 13.7 NE 19 24 10 13 1014.0 1012.4 0.0
23/09:30pm 29.3 24.0 -0.9 14 14.3 NE 17 20 9 11 1013.7 1012.1 0.0
23/09:00pm 30.3 24.5 -1.2 13 15.0 ENE 19 22 10 12 1013.6 1012.0 0.0
23/08:30pm 30.9 24.9 -1.8 12 15.5 ENE 20 24 11 13 1013.2 1011.7 0.0
23/08:00pm 31.0 25.0 -2.9 11 15.7 ENE 19 20 10 11 1012.8 1011.3 0.0
23/07:30pm 31.1 25.7 -4.1 10 16.0 ENE 15 19 8 10 1012.5 1011.0 0.0
23/07:00pm 31.6 26.5 -5.1 9 16.5 E 13 17 7 9 1012.2 1010.7 0.0
23/06:30pm 33.1 27.2 -5.5 8 17.4 E 17 20 9 11 1011.9 1010.3 0.0
23/06:00pm 34.4 29.0 -4.6 8 18.1 E 15 24 8 13 1011.7 1010.1 0.0
23/05:30pm 35.3 30.3 -3.9 8 18.5 E 13 20 7 11 1011.5 1009.9 0.0
23/05:00pm 35.6 29.9 -3.7 8 18.6 ENE 17 24 9 13 1011.5 1009.9 0.0
23/04:30pm 35.8 29.7 -3.5 8 18.7 ESE 19 28 10 15 1011.5 1009.9 0.0
23/04:00pm 36.0 31.9 -3.4 8 18.8 E 9 24 5 13 1011.5 1009.9 0.0
23/03:30pm 36.8 32.0 -2.8 8 19.2 SE 13 22 7 12 1011.6 1010.0 0.0
23/03:00pm 36.5 31.6 -3.0 8 19.1 E 13 28 7 15 1011.8 1010.2 0.0
23/02:30pm 36.4 30.6 -4.9 7 19.3 ENE 17 35 9 19 1012.0 1010.4 0.0
23/02:00pm 36.3 31.2 -5.0 7 19.3 NE 13 22 7 12 1012.5 1011.0 0.0
23/01:30pm 36.1 29.9 -5.1 7 19.2 SE 19 33 10 18 1012.9 1011.4 0.0
23/01:00pm 36.1 28.9 -5.1 7 19.2 SSE 24 33 13 18 1013.6 1012.0 0.0
23/12:30pm 36.6 31.9 -4.7 7 19.4 ENE 11 17 6 9 1014.0 1012.4 0.0
23/12:00pm 35.3 29.4 -2.3 9 18.2 ESE 19 24 10 13 1014.6 1013.0 0.0
23/11:30am 35.9 29.3 -3.5 8 18.8 ENE 22 33 12 18 1014.9 1013.4 0.0
23/11:00am 35.0 29.8 0.2 11 17.5 NE 17 28 9 15 1015.3 1013.8 0.0
23/10:30am 33.8 28.8 1.6 13 16.4 NNE 17 28 9 15 1015.7 1014.2 0.0
23/10:00am 32.7 27.7 3.6 16 15.2 NE 19 32 10 17 1016.0 1014.5 0.0
23/09:30am 31.0 26.9 6.1 21 13.5 NE 17 20 9 11 1016.3 1014.8 0.0
23/09:00am 28.9 24.7 7.5 26 11.7 NE 19 24 10 13 1016.4 1014.9 0.0
23/08:30am 27.1 22.9 7.5 29 10.6 NE 19 24 10 13 1016.3 1014.8 0.0
23/08:00am 25.3 21.4 8.7 35 9.1 NNE 19 26 10 14 1016.1 1014.6 0.0
23/07:30am 23.1 20.2 9.5 42 7.5 NE 15 20 8 11 1015.9 1014.4 0.0
23/07:00am 21.9 19.0 9.8 46 6.6 NE 15 20 8 11 1015.4 1013.9 0.0
23/06:30am 21.2 18.3 9.8 48 6.2 ENE 15 17 8 9 1015.1 1013.6 0.0
23/06:00am 21.1 18.4 9.0 46 6.5 ENE 13 17 7 9 1015.0 1013.5 0.0
23/05:30am 21.3 18.9 8.6 44 6.8 ENE 11 15 6 8 1014.6 1013.0 0.0
23/05:00am 21.9 19.9 8.8 43 7.1 ENE 9 15 5 8 1014.4 1012.8 0.0
23/04:30am 22.2 18.5 8.0 40 7.6 NE 17 20 9 11 1014.1 1012.5 0.0
23/04:00am 22.4 18.6 7.4 38 7.9 NE 17 20 9 11 1013.8 1012.2 0.0
23/03:30am 22.7 19.3 7.7 38 8.0 NE 15 20 8 11 1013.7 1012.1 0.0
23/03:00am 22.5 19.4 7.1 37 8.1 NE 13 17 7 9 1013.9 1012.3 0.0
23/02:30am 23.0 20.1 6.3 34 8.7 NE 11 13 6 7 1014.1 1012.5 0.0
23/02:00am 24.2 20.6 6.9 33 9.1 NE 15 20 8 11 1014.2 1012.6 0.0
23/01:30am 24.2 20.1 6.0 31 9.4 NE 17 20 9 11 1014.3 1012.7 0.0
23/01:00am 23.4 19.6 3.9 28 9.7 NE 13 15 7 8 1014.6 1013.0 0.0
23/12:30am 23.4 19.5 1.1 23 10.5 NE 11 13 6 7 1014.6 1013.0 0.0
23/12:00am 24.2 19.4 -2.4 17 11.8 NE 13 17 7 9 1014.7 1013.1 0.0
 
Date/Time
EST
Temp
°C
App
Temp
°C
Dew
Point
°C
Rel
Hum
%
Delta-T
°C
Wind Press
QNH
hPa
Press
MSL
hPa
Rain since
9am
mm
Dir  Spd
km/h
Gust
km/h
Spd
kts
Gust
kts
22/11:30pm 25.7 20.1 -2.8 15 12.7 NE 17 20 9 11 1014.9 1013.4 0.0
22/11:00pm 23.6 19.9 -4.5 15 11.9 ENE 6 9 3 5 1014.7 1013.1 0.0
22/10:30pm 23.8 19.5 -5.3 14 12.2 E 9 13 5 7 1014.7 1013.1 0.0
22/10:00pm 22.8 18.1 -5.2 15 11.6 SE 11 13 6 7 1014.3 1012.7 0.0
22/09:30pm 24.5 20.1 -5.7 13 12.6 SE 9 11 5 6 1014.3 1012.7 0.0
22/09:00pm 25.4 20.3 -5.0 13 13.0 SSE 13 15 7 8 1014.2 1012.6 0.0
22/08:30pm 27.0 22.4 -3.7 13 13.6 SSE 11 13 6 7 1014.0 1012.4 0.0
22/08:00pm 26.7 22.4 -5.0 12 13.7 SSE 9 13 5 7 1013.7 1012.1 0.0
22/07:30pm 28.9 25.0 -4.5 11 14.8 SSE 7 11 4 6 1013.3 1011.8 0.0
22/07:00pm 31.7 27.9 -3.6 10 16.3 SE 7 13 4 7 1013.0 1011.5 0.0
22/06:30pm 31.2 28.2 -5.4 9 16.3 S 2 7 1 4 1012.6 1011.1 0.0
22/06:00pm 34.1 31.5 -4.8 8 17.9 CALM 0 0 0 0 1012.4 1010.9 0.0
22/05:30pm 35.2 31.6 -4.0 8 18.4 WNW 6 7 3 4 1012.3 1010.8 0.0
22/05:00pm 35.3 30.3 -3.9 8 18.5 SSW 13 22 7 12 1012.2 1010.7 0.0
22/04:30pm 35.5 31.9 -3.8 8 18.6 SE 6 9 3 5 1012.1 1010.6 0.0
22/04:00pm 35.9 31.0 -3.5 8 18.8 E 13 20 7 11 1012.1 1010.6 0.0
22/03:30pm 36.0 31.1 -3.4 8 18.8 SSW 13 20 7 11 1012.3 1010.8 0.0
22/03:00pm 36.0 31.5 -3.4 8 18.8 SW 11 20 6 11 1012.4 1010.9 0.0
22/02:30pm 35.4 30.8 -3.8 8 18.5 NNW 11 19 6 10 1012.8 1011.3 0.0
22/02:00pm 35.1 29.4 -4.1 8 18.4 S 17 28 9 15 1013.2 1011.7 0.0
22/01:30pm 35.1 29.7 -4.1 8 18.4 W 15 24 8 13 1013.7 1012.1 0.0
22/01:00pm 35.9 31.0 -3.5 8 18.8 SSW 13 28 7 15 1014.1 1012.5 0.0
22/12:30pm 34.8 29.0 -4.3 8 18.2 SE 17 24 9 13 1014.6 1013.0 0.0
22/12:00pm 34.3 30.4 -4.6 8 18.0 W 7 15 4 8 1015.1 1013.6 0.0
22/11:30am 33.5 29.3 -1.0 11 16.8 W 11 15 6 8 1015.5 1014.0 0.0
22/11:00am 33.5 28.7 0.2 12 16.6 WNW 15 20 8 11 1016.0 1014.5 0.0
22/10:30am 32.3 28.4 1.4 14 15.6 WNW 11 15 6 8 1016.4 1014.9 0.0
22/10:00am 31.6 27.2 2.7 16 14.8 NNE 15 22 8 12 1016.8 1015.2 0.0
22/09:30am 30.8 25.8 4.5 19 13.8 NNE 20 30 11 16 1016.9 1015.3 0.0
22/09:00am 28.7 24.1 5.5 23 12.2 NE 19 26 10 14 1017.2 1015.6 0.0
22/08:30am 26.3 21.4 5.3 26 10.9 NNE 20 26 11 14 1017.1 1015.5 0.0
22/08:00am 24.5 20.2 5.3 29 9.8 NE 17 22 9 12 1016.9 1015.3 0.0
22/07:30am 22.8 17.9 4.3 30 9.2 NE 19 26 10 14 1016.4 1014.9 0.0
22/07:00am 21.7 17.8 3.4 30 8.9 ENE 13 17 7 9 1016.2 1014.7 0.0
22/06:30am 20.4 16.4 2.7 31 8.4 ENE 13 17 7 9 1015.8 1014.3 0.0
22/06:00am 20.1 16.3 2.0 30 8.5 NE 11 15 6 8 1015.4 1013.9 0.0
22/05:30am 20.2 16.7 1.1 28 8.8 NE 9 11 5 6 1015.0 1013.5 0.0
22/05:00am 20.6 17.6 1.0 27 9.0 ENE 6 9 3 5 1014.6 1013.0 0.0
22/04:30am 21.4 17.1 1.1 26 9.4 NE 13 15 7 8 1014.1 1012.5 0.0
22/04:00am 22.2 17.6 1.3 25 9.8 NE 15 19 8 10 1013.8 1012.2 0.0
22/03:30am 22.4 18.1 0.9 24 10.0 NE 13 20 7 11 1013.6 1012.0 0.0
22/03:00am 21.5 17.7 -0.5 23 9.9 NE 9 11 5 6 1013.6 1012.0 0.0
22/02:30am 21.9 17.7 -0.8 22 10.2 NE 11 13 6 7 1013.6 1012.0 0.0
22/02:00am 22.4 18.6 -1.0 21 10.5 NE 9 13 5 7 1014.0 1012.4 0.0
22/01:30am 23.2 18.6 -1.0 20 10.9 NE 13 17 7 9 1014.1 1012.5 0.0
22/01:00am 23.8 19.3 -0.5 20 11.1 NE 13 17 7 9 1014.3 1012.7 0.0
22/12:30am 24.6 19.3 -0.5 19 11.6 NE 17 20 9 11 1014.5 1012.9 0.0
22/12:00am 25.5 19.8 -0.5 18 12.1 NE 19 26 10 14 1014.7 1013.1 0.0
 
Date/Time
EST
Temp
°C
App
Temp
°C
Dew
Point
°C
Rel
Hum
%
Delta-T
°C
Wind Press
QNH
hPa
Press
MSL
hPa
Rain since
9am
mm
Dir  Spd
km/h
Gust
km/h
Spd
kts
Gust
kts
21/11:30pm 26.3 19.9 0.9 19 12.2 NE 24 33 13 18 1014.6 1013.0 0.0
21/11:00pm 26.8 20.6 2.0 20 12.2 NE 24 32 13 17 1014.5 1012.9 0.0
21/10:30pm 26.7 22.3 0.4 18 12.5 NE 13 15 7 8 1014.3 1012.7 0.0
21/10:00pm 28.4 23.6 0.2 16 13.6 NE 15 20 8 11 1014.1 1012.5 0.0
21/09:30pm 26.4 21.9 -0.6 17 12.6 E 13 17 7 9 1014.1 1012.5 0.0
21/09:00pm 25.2 21.8 -0.8 18 12.0 SSW 7 9 4 5 1013.6 1012.0 0.0
21/08:30pm 25.5 21.4 -0.5 18 12.1 S 11 13 6 7 1013.2 1011.7 0.0

Other Formats:

Comma delimited format used in spreadsheet applications
http://www.bom.gov.au/fwo/IDQ60801/IDQ60801.94343.axf

JavaScript Object Notation format (JSON) in row-major order
http://www.bom.gov.au/fwo/IDQ60801/IDQ60801.94343.json